• Join FlightAware (Why Join?)
  • Login
  • US Flag 
08:33PM EDT


 

Airport Tracker/Info


-or-


 

Live Flight TrackerFlight Track Log ✈ DAL4165 ✈ 28-Apr-2013 ✈ KOKC - KATL

Flight Track Log - Related Links

Times and Time Zones

All times are in EDT time to prevent confusion due to time zone crossing. See the DAL4165 flight status page for this flight to view local times or setup timezone preferences in your user account.

Time Position Orientation Groundspeed Altitude Reporting Facility
EDT Latitude Longitude Course Direction KTS MPH feet Rate Location/Type
07:28PM 35.3539 -97.5917 174° South 152 175 3,200  Level Fort Worth Center
07:30PM 35.3833 -97.4513 90° East  Level FlightAware Approximate
07:30PM 35.3206 -97.4822 90° East 287 330 5,900  Level Fort Worth Center
07:31PM 35.3941 -97.1995 85° East  Level FlightAware Approximate
07:31PM 35.3228 -97.3831 88° East 294 338 8,600  Level Fort Worth Center
07:32PM 35.4000 -97.0661 90° East  Level FlightAware Approximate
07:32PM 35.3311 -97.2661 85° East 299 344 11,000  Level Fort Worth Center
07:33PM 35.4000 -96.9324 90° East  Level FlightAware Approximate
07:33PM 35.3308 -97.1361 90° East 336 387 11,700  Level Fort Worth Center
07:34PM 35.3367 -96.9986 87° East 380 437 14,300 2,400 Climbing Fort Worth Center
07:35PM 35.3403 -96.8639 88° East 390 449 16,600 2,220 Climbing Fort Worth Center
07:36PM 35.3439 -96.7314 88° East 390 449 18,800 1,980 Climbing Fort Worth Center
07:37PM 35.3431 -96.5942 90° East 390 449 20,600 1,740 Climbing Fort Worth Center
07:38PM 35.3400 -96.4542 91° East 395 455 22,300 1,620 Climbing Fort Worth Center
07:39PM 35.3347 -96.3142 93° East 407 468 23,900 1,260 Climbing Fort Worth Center
07:40PM 35.3333 -96.1717 91° East 407 468 24,900 900 Climbing Fort Worth Center
07:41PM 35.3297 -96.0217 92° East 424 488 25,800 900 Climbing Fort Worth Center
07:42PM 35.3258 -95.8717 92° East 436 502 26,700 900 Climbing Fort Worth Center
07:43PM 35.3239 -95.7139 91° East 446 513 27,600 1,140 Climbing Fort Worth Center
07:45PM 35.3153 -95.4258 92° East 444 511 30,000 1,260 Climbing Memphis Center
07:46PM 35.3069 -95.2725 94° East 444 511 31,300 1,200 Climbing Memphis Center
07:47PM 35.3022 -95.1222 92° East 444 511 32,500 1,080 Climbing Memphis Center
07:48PM 35.2956 -94.9692 93° East 444 511 33,500 1,020 Climbing Memphis Center
07:49PM 35.2906 -94.8189 92° East 444 511 34,600 720 Climbing Memphis Center
07:50PM 35.2833 -94.6683 93° East 444 511 35,000 180 Climbing Memphis Center
07:51PM 35.2783 -94.5078 92° East 457 526 35,000  Level Memphis Center
07:52PM 35.2711 -94.3500 93° East 463 533 35,000  Level Memphis Center
07:53PM 35.2656 -94.1919 92° East 463 533 35,000  Level Memphis Center
07:54PM 35.2600 -94.0342 92° East 463 533 35,000  Level Memphis Center
07:55PM 35.2500 -93.8708 94° East 463 533 35,000  Level Memphis Center
07:56PM 35.2439 -93.7106 93° East 468 539 35,000  Level Memphis Center
07:57PM 35.2336 -93.5500 94° East 468 539 35,000 540 Level Memphis Center
07:58PM 35.2250 -93.3919 94° East 468 539 36,100 960 Climbing Memphis Center
07:59PM 35.2219 -93.2547 92° East 461 531 37,000 420 Climbing Memphis Center
08:00PM 35.2172 -93.1019 92° East 456 525 37,000  Level Memphis Center
08:01PM 35.2081 -92.9417 94° East 466 536 37,000  Level Memphis Center
08:02PM 35.1989 -92.7711 94° East 474 545 37,000  Level Memphis Center
08:03PM 35.1856 -92.5903 95° East 487 560 37,000  Level Memphis Center
08:04PM 35.1781 -92.4275 93° East 487 560 37,000  Level Memphis Center
08:05PM 35.1681 -92.2647 94° East 481 554 37,000  Level Memphis Center
08:06PM 35.1581 -92.1019 94° East 481 554 37,000  Level Memphis Center
08:07PM 35.1497 -91.9392 94° East 481 554 37,000  Level Memphis Center
08:08PM 35.1392 -91.7764 94° East 481 554 37,000  Level Memphis Center
08:09PM 35.1306 -91.6089 94° East 481 554 37,000  Level Memphis Center
08:10PM 35.1194 -91.4411 95° East 481 554 37,000  Level Memphis Center
08:11PM 35.1103 -91.2761 94° East 481 554 37,000  Level Memphis Center
08:12PM 35.0989 -91.1133 95° East 481 554 37,000  Level Memphis Center
08:13PM 35.0875 -90.9433 95° East 494 568 37,000  Level Memphis Center
08:14PM 35.0756 -90.7808 95° East 494 568 37,000  Level Memphis Center
08:15PM 35.0656 -90.6311 95° East 494 568 37,000  Level Memphis Center
08:16PM 35.0553 -90.4636 94° East 494 568 37,000  Level Memphis Center
08:17PM 35.0408 -90.2961 96° East 499 574 37,000  Level Memphis Center
08:18PM 35.0281 -90.1314 95° East 499 574 37,000  Level Memphis Center
08:19PM 35.0172 -89.9642 94° East 499 574 37,000  Level Memphis Center
08:20PM 34.9933 -89.7792 99° East 494 568 37,000  Level Memphis Center
08:21PM 34.9653 -89.6069 101° East 507 583 37,000  Level Memphis Center
08:22PM 34.9372 -89.4428 102° East 501 577 37,000  Level Memphis Center
08:23PM 34.9108 -89.2783 101° East 501 577 37,000  Level Memphis Center
08:24PM 34.8886 -89.1292 100° East 501 577 37,000  Level Memphis Center
08:25PM 34.8639 -88.9625 100° East 496 571 37,000  Level Memphis Center
08:26PM 34.8389 -88.7933 100° East 496 571 37,000  Level Memphis Center
08:27PM 34.8117 -88.6294 101° East 496 571 37,000  Level Memphis Center
08:28PM 34.7864 -88.4758 101° East 483 556 37,000  Level Memphis Center
08:29PM 34.7631 -88.3197 100° East 472 543 37,000  Level Memphis Center
08:30PM 34.7369 -88.1358 100° East 472 543 37,000 -60 Level Memphis Center
08:31PM 34.7069 -87.9800 103° East 487 560 36,900 -600 Descending Memphis Center
08:32PM 34.6828 -87.8164 100° East 487 560 35,800 -1,140 Descending Memphis Center
08:33PM 34.6567 -87.6631 102° East 482 555 34,700 -1,140 Descending Memphis Center
08:34PM 34.6306 -87.5150 102° East 469 540 33,600 -720 Descending Memphis Center
08:35PM 34.5983 -87.3067 101° East 452 520 33,000 -300 Descending Atlanta Center
08:36PM 34.5667 -87.1514 104° East 452 520 33,000  Level Atlanta Center
08:37PM 34.5372 -86.9942 103° East 462 532 33,000 -360 Level Atlanta Center
08:38PM 34.5056 -86.8392 104° East 468 539 32,300 -1,080 Descending Atlanta Center
08:39PM 34.4756 -86.6819 103° East 473 544 30,900 -1,440 Descending Atlanta Center
08:40PM 34.4475 -86.5275 102° East 473 544 29,500 -1,440 Descending Atlanta Center
08:41PM 34.4189 -86.3856 104° East 452 520 28,100 -1,440 Descending Atlanta Center
08:42PM 34.3903 -86.2464 104° East 438 504 26,700 -1,500 Descending Atlanta Center
08:43PM 34.3656 -86.1097 102° East 424 488 25,200 -1,380 Descending Atlanta Center
08:44PM 34.3403 -85.9833 104° East 402 463 24,000 -1,380 Descending Atlanta Center
08:45PM 34.3150 -85.8597 104° East 386 444 22,500 -1,380 Descending Atlanta Center
08:46PM 34.2936 -85.7536 104° East 370 426 21,300 -1,320 Descending Atlanta Center
08:47PM 34.2703 -85.6275 103° East 370 426 19,900 -1,500 Descending Atlanta Center
08:48PM 34.2322 -85.4986 110° East 389 448 18,400 -1,500 Descending Atlanta Center
08:49PM 34.1981 -85.3775 109° East 395 455 16,900 -1,500 Descending Atlanta Center
08:50PM 34.1597 -85.2564 111° Southeast 383 441 15,400 -1,500 Descending Atlanta Center
08:51PM 34.1253 -85.1381 109° East 371 427 14,000 -1,200 Descending Atlanta Center
08:52PM 34.0825 -85.0169 113° Southeast 371 427 13,000 -1,020 Descending Atlanta Center
08:53PM 34.0206 -84.9486 138° Southeast 305 351 12,000 -1,440 Descending Atlanta Center
08:54PM 33.9456 -84.9353 172° South 280 322 10,200 -1,140 Descending Atlanta Center
08:55PM 33.8725 -84.9269 175° South 267 307 9,800 -600 Descending Atlanta Center
08:56PM 33.7994 -84.9189 175° South 267 307 9,000 -1,200 Descending Atlanta Center
08:57PM 33.7389 -84.9106 173° South 244 281 7,500 -1,020 Descending Atlanta Center
08:58PM 33.6806 -84.9000 171° South 223 257 7,000 -300 Descending Atlanta Center
08:59PM 33.6456 -84.8522 131° Southeast 191 220 7,000  Level Atlanta Center
09:00PM 33.6333 -84.8167 112° Southeast 223 257 7,000  Level Atlanta TRACON